Main page
METAR-TAF:

METAR-TAF

Airports :

Castres–Mazamet Airport

Castres, France

latitude: 43-33-25N, longitude: 2-17-21E, elevation: 239 m

Current weather observation

The report was made 25 minutes ago, at 21:30 UTC
Wind 2 kt from the Southeast
Temperature 13°C
Humidity 88%
Pressure 1021 hPa
Visibility 10 km or more
Overcast at a height of 4500 ft

METAR: LFCK 212130Z AUTO 14002KT 9999 OVC045 13/11 Q1021

Time: 23:55 (21:55 UTC)

Forecast

The report was made 4 hours and 55 minutes ago, at 17:00 UTC
Forecast valid from 21 at 18 UTC to 22 at 03 UTC
Wind 3 kt from variable directions
Visibility 10 km or more
Broken clouds at a height of 3500 ft
Probability 30%
from 21 at 23 UTC to 22 at 03 UTC
Broken clouds at a height of 1000 ft

TAF: LFCK 211700Z 2118/2203 VRB03KT 9999 BKN035 PROB30 2123/2203 BKN010

Weather observations and forecasts of more than 4000 airports (METAR and TAF reports).

The available stations are represented by yellow and red dots on the map.

Hover mouse over dot to see the name of the station.

Then click to see weather observations and forecasts.

To change the map : click on the green buttons with a black cross to zoom in, on the green button with a dash to zoom out, or on the green arrows for adjacent maps.


METAR-TAF: